Time;durP1;ratioP1;P1;durP2;ratioP2;P2;SDS_P1;SDS_P2;PMS_P1;PMS_P2;Temp;Humidity;BMP_temperature;BMP_pressure;BME280_temperature;BME280_humidity;BME280_pressure;Samples;Min_cycle;Max_cycle;Signal;HPM_P1;HPM_P2
2023/06/09 00:01:58;;;;;;;19.20;12.25;;;19.10;99.90;;;;;;4877983;29;20048;-79
2023/06/09 00:04:26;;;;;;;15.20;11.30;;;19.10;99.90;;;;;;4887032;29;20040;-79
2023/06/09 00:06:54;;;;;;;15.88;10.45;;;19.10;99.90;;;;;;4873114;29;20108;-79
2023/06/09 00:09:21;;;;;;;17.48;11.10;;;19.10;99.90;;;;;;4888179;29;20048;-79
2023/06/09 00:11:49;;;;;;;19.08;12.93;;;19.10;99.90;;;;;;4884333;29;20044;-78
2023/06/09 00:14:16;;;;;;;14.43;11.13;;;19.10;99.90;;;;;;4883403;29;20222;-79
2023/06/09 00:16:45;;;;;;;13.82;10.25;;;19.10;99.90;;;;;;4887314;29;20119;-79
2023/06/09 00:19:14;;;;;;;14.63;10.52;;;19.10;99.90;;;;;;4887567;29;20040;-79
2023/06/09 00:21:44;;;;;;;17.38;10.73;;;19.10;99.90;;;;;;4892961;29;20080;-79
2023/06/09 00:24:11;;;;;;;14.52;10.52;;;19.10;99.90;;;;;;4848533;29;20051;-79
2023/06/09 00:26:38;;;;;;;13.82;10.88;;;19.10;99.90;;;;;;4859493;29;20067;-79
2023/06/09 00:29:05;;;;;;;13.52;9.38;;;19.20;99.90;;;;;;4870431;29;20043;-79
2023/06/09 00:31:32;;;;;;;12.35;9.95;;;19.20;99.90;;;;;;4883976;29;20122;-78
2023/06/09 00:34:00;;;;;;;12.55;9.70;;;19.10;99.90;;;;;;4899568;29;20060;-78
2023/06/09 00:36:27;;;;;;;11.77;9.27;;;19.10;99.90;;;;;;4890540;29;20108;-79
2023/06/09 00:38:54;;;;;;;14.77;10.02;;;19.10;99.90;;;;;;4884380;29;20076;-79
2023/06/09 00:41:21;;;;;;;11.95;9.65;;;19.10;99.90;;;;;;4888496;29;20506;-79
2023/06/09 00:43:49;;;;;;;12.77;8.20;;;19.10;99.90;;;;;;4897500;29;20052;-79
2023/06/09 00:46:16;;;;;;;11.45;6.90;;;19.00;99.90;;;;;;4899167;29;20040;-78
2023/06/09 00:48:43;;;;;;;9.75;6.57;;;19.00;99.90;;;;;;4870483;29;20056;-79
2023/06/09 00:51:11;;;;;;;10.90;7.40;;;19.00;99.90;;;;;;4893400;29;21114;-80
2023/06/09 00:53:38;;;;;;;14.30;7.82;;;19.00;99.90;;;;;;4877117;29;20084;-80
2023/06/09 00:56:05;;;;;;;16.63;9.38;;;19.00;99.90;;;;;;4877673;29;20858;-79
2023/06/09 00:58:33;;;;;;;13.77;9.20;;;19.00;99.90;;;;;;4872939;29;20099;-79
2023/06/09 01:01:00;;;;;;;11.23;8.18;;;19.00;99.90;;;;;;4891356;29;20192;-77
2023/06/09 01:03:28;;;;;;;11.25;8.00;;;18.90;99.90;;;;;;4898738;29;20048;-79
2023/06/09 01:06:12;;;;;;;11.10;7.43;;;18.90;99.90;;;;;;4890780;29;20140;-78
2023/06/09 01:08:52;;;;;;;12.07;8.73;;;19.00;99.90;;;;;;4887852;29;20151;-79
2023/06/09 01:12:13;;;;;;;11.82;8.38;;;18.90;99.90;;;;;;4892203;29;20052;-79
2023/06/09 01:14:53;;;;;;;12.10;8.52;;;18.90;99.90;;;;;;4836867;29;20090;-79
2023/06/09 01:17:23;;;;;;;10.18;7.78;;;18.90;99.90;;;;;;4894967;29;20158;-79
2023/06/09 01:20:04;;;;;;;11.02;7.88;;;18.90;99.90;;;;;;4892095;29;20060;-79
2023/06/09 01:22:52;;;;;;;10.25;7.55;;;18.90;99.90;;;;;;4878638;29;20087;-79
2023/06/09 01:25:26;;;;;;;13.80;7.93;;;18.90;99.90;;;;;;4892348;29;20500;-79
2023/06/09 01:27:57;;;;;;;10.95;7.50;;;18.90;99.90;;;;;;4864450;29;20120;-79
2023/06/09 01:30:30;;;;;;;9.00;5.60;;;18.90;99.90;;;;;;4873925;29;20151;-79
2023/06/09 01:33:00;;;;;;;9.13;5.00;;;18.80;99.90;;;;;;4876046;29;20064;-79
2023/06/09 01:35:28;;;;;;;7.22;5.20;;;18.80;99.90;;;;;;4885656;29;20131;-79
2023/06/09 01:37:56;;;;;;;10.50;5.43;;;18.80;99.90;;;;;;4891140;29;20601;-79
2023/06/09 01:40:26;;;;;;;9.90;6.45;;;18.80;99.90;;;;;;4889315;29;20040;-79
2023/06/09 01:42:53;;;;;;;10.25;6.28;;;18.80;99.90;;;;;;4884388;29;20468;-79
2023/06/09 01:45:20;;;;;;;7.13;5.25;;;18.80;99.90;;;;;;4877284;29;20099;-79
2023/06/09 01:47:47;;;;;;;11.18;5.88;;;18.80;99.90;;;;;;4885054;29;20123;-79
2023/06/09 01:50:23;;;;;;;9.65;5.47;;;18.70;99.90;;;;;;4887363;29;20048;-79
2023/06/09 01:52:57;;;;;;;7.53;4.63;;;18.70;99.90;;;;;;4874759;29;20049;-78
2023/06/09 01:55:34;;;;;;;8.38;4.45;;;18.70;99.90;;;;;;4890988;29;20058;-79
2023/06/09 01:58:14;;;;;;;9.50;5.47;;;18.70;99.90;;;;;;4903901;29;20500;-79
2023/06/09 02:00:44;;;;;;;8.75;4.75;;;18.70;99.90;;;;;;4898786;29;20100;-79
2023/06/09 02:03:14;;;;;;;8.43;5.13;;;18.70;99.90;;;;;;4899814;29;20044;-79
2023/06/09 02:05:45;;;;;;;9.55;4.95;;;18.60;99.90;;;;;;4901618;29;20527;-79
2023/06/09 02:08:13;;;;;;;8.60;4.90;;;18.60;99.90;;;;;;4881878;29;22738;-78
2023/06/09 02:10:40;;;;;;;8.40;4.82;;;18.50;99.90;;;;;;4890862;29;20071;-79
2023/06/09 02:13:15;;;;;;;10.30;5.00;;;18.60;99.90;;;;;;4889759;29;20052;-78
2023/06/09 02:15:44;;;;;;;11.52;5.25;;;18.60;99.90;;;;;;4893042;29;20064;-78
2023/06/09 02:18:17;;;;;;;12.82;5.60;;;18.60;99.90;;;;;;4898642;29;20401;-77
2023/06/09 02:20:44;;;;;;;8.68;4.88;;;18.60;99.90;;;;;;4881201;29;20056;-78
2023/06/09 02:23:12;;;;;;;6.82;4.55;;;18.60;99.90;;;;;;4889419;29;20785;-78
2023/06/09 02:25:40;;;;;;;7.30;4.15;;;18.60;99.90;;;;;;4877944;29;20040;-78
2023/06/09 02:28:08;;;;;;;8.43;5.47;;;18.60;99.90;;;;;;4890137;29;20061;-78
2023/06/09 02:30:36;;;;;;;9.43;6.55;;;18.60;99.90;;;;;;4876055;29;20048;-78
2023/06/09 02:33:03;;;;;;;11.10;6.78;;;18.50;99.90;;;;;;4911817;29;20056;-79
2023/06/09 02:35:31;;;;;;;10.88;6.43;;;18.40;99.90;;;;;;4880147;29;20048;-78
2023/06/09 02:38:03;;;;;;;10.00;6.63;;;18.50;99.90;;;;;;4890566;29;20411;-79
2023/06/09 02:40:32;;;;;;;9.98;6.45;;;18.50;99.90;;;;;;4889023;29;20397;-78
2023/06/09 02:43:00;;;;;;;11.98;6.82;;;18.50;99.90;;;;;;4891488;29;20049;-78
2023/06/09 02:45:27;;;;;;;11.05;7.13;;;18.50;99.90;;;;;;4878417;29;20044;-78
2023/06/09 02:47:55;;;;;;;11.65;7.70;;;18.40;99.90;;;;;;4873679;29;20052;-78
2023/06/09 02:50:23;;;;;;;10.70;7.13;;;18.40;99.90;;;;;;4881654;29;20148;-78
2023/06/09 02:52:55;;;;;;;12.15;7.82;;;18.40;99.90;;;;;;4897196;29;20059;-78
2023/06/09 02:55:23;;;;;;;12.95;7.65;;;18.40;99.90;;;;;;4902045;29;20048;-78
2023/06/09 02:57:51;;;;;;;14.13;7.65;;;18.40;99.90;;;;;;4885405;29;20089;-78
2023/06/09 03:00:21;;;;;;;14.88;8.65;;;18.40;99.90;;;;;;4900020;29;20079;-79
2023/06/09 03:02:51;;;;;;;13.50;8.10;;;18.40;99.90;;;;;;4872776;29;20055;-79
2023/06/09 03:05:24;;;;;;;14.43;8.45;;;18.40;99.90;;;;;;4881547;29;20060;-79
2023/06/09 03:07:53;;;;;;;16.77;9.43;;;18.40;99.90;;;;;;4881837;29;20211;-79
2023/06/09 03:10:22;;;;;;;13.32;8.85;;;18.20;99.90;;;;;;4898291;29;20049;-79
2023/06/09 03:12:50;;;;;;;11.60;8.10;;;18.30;99.90;;;;;;4899374;29;20421;-79
2023/06/09 03:15:18;;;;;;;11.57;8.40;;;18.30;99.90;;;;;;4896506;29;20044;-79
2023/06/09 03:17:47;;;;;;;13.32;8.15;;;18.30;99.90;;;;;;4888493;29;20040;-79
2023/06/09 03:20:16;;;;;;;14.20;9.30;;;18.30;99.90;;;;;;4889618;29;20049;-79
2023/06/09 03:22:47;;;;;;;15.40;9.07;;;18.30;99.90;;;;;;4893860;29;20044;-80
2023/06/09 03:25:15;;;;;;;13.27;9.02;;;18.30;99.90;;;;;;4893332;29;20059;-80
2023/06/09 03:27:43;;;;;;;15.60;9.27;;;18.30;99.90;;;;;;4877683;29;20165;-79
2023/06/09 03:30:11;;;;;;;15.32;8.93;;;18.40;99.90;;;;;;4895211;29;20144;-79
2023/06/09 03:32:39;;;;;;;13.63;8.75;;;18.30;99.90;;;;;;4891276;29;20092;-80
2023/06/09 03:35:07;;;;;;;15.48;9.52;;;18.40;99.90;;;;;;4903241;29;20053;-80
2023/06/09 03:37:35;;;;;;;14.40;8.85;;;18.40;99.90;;;;;;4906082;29;20048;-80
2023/06/09 03:40:04;;;;;;;14.52;9.13;;;18.40;99.90;;;;;;4874368;29;20057;-80
2023/06/09 03:42:32;;;;;;;15.63;9.68;;;18.30;99.90;;;;;;4905165;29;20040;-80
2023/06/09 03:44:59;;;;;;;15.23;8.70;;;18.20;99.90;;;;;;4892486;29;20164;-80
2023/06/09 03:47:28;;;;;;;13.98;9.90;;;18.30;99.90;;;;;;4889432;29;20052;-80
2023/06/09 03:49:56;;;;;;;15.95;10.55;;;18.30;99.90;;;;;;4894594;29;20087;-80
2023/06/09 03:52:26;;;;;;;14.35;9.63;;;18.30;99.90;;;;;;4895052;29;20143;-80
2023/06/09 03:54:55;;;;;;;14.63;10.32;;;18.30;99.90;;;;;;4894548;29;22804;-80
2023/06/09 03:57:22;;;;;;;16.20;9.90;;;18.30;99.90;;;;;;4891168;29;20508;-79
2023/06/09 03:59:50;;;;;;;18.27;9.75;;;18.20;99.90;;;;;;4890161;29;20567;-79
2023/06/09 04:02:18;;;;;;;16.42;9.95;;;18.20;99.90;;;;;;4903598;29;20036;-79
2023/06/09 04:04:45;;;;;;;15.10;10.23;;;18.30;99.90;;;;;;4881214;29;20512;-79
2023/06/09 04:07:14;;;;;;;16.73;10.40;;;18.30;99.90;;;;;;4888644;29;20072;-79
2023/06/09 04:09:42;;;;;;;19.70;11.43;;;18.30;99.90;;;;;;4877807;29;20055;-79
2023/06/09 04:12:09;;;;;;;17.27;11.15;;;18.30;99.90;;;;;;4879017;29;20062;-78
2023/06/09 04:14:37;;;;;;;15.20;10.07;;;18.40;99.90;;;;;;4892333;29;22842;-78
2023/06/09 04:17:04;;;;;;;22.30;11.73;;;18.40;99.90;;;;;;4899329;29;20052;-78
2023/06/09 04:19:31;;;;;;;16.48;9.82;;;18.40;99.90;;;;;;4904889;29;20119;-79
2023/06/09 04:22:04;;;;;;;16.88;10.75;;;18.40;99.90;;;;;;4894455;29;20055;-78
2023/06/09 04:24:32;;;;;;;15.85;10.27;;;18.40;99.90;;;;;;4877348;29;20131;-79
2023/06/09 04:27:01;;;;;;;17.45;11.60;;;18.40;99.90;;;;;;4882326;29;20177;-79
2023/06/09 04:29:28;;;;;;;14.90;11.10;;;18.40;99.90;;;;;;4887713;29;20055;-79
2023/06/09 04:31:58;;;;;;;18.15;11.88;;;18.50;99.90;;;;;;4879715;29;20592;-79
2023/06/09 04:34:29;;;;;;;17.05;11.50;;;18.50;99.90;;;;;;4870881;29;20103;-76
2023/06/09 04:36:56;;;;;;;23.45;12.48;;;18.50;99.90;;;;;;4894026;29;20139;-76
2023/06/09 04:39:25;;;;;;;18.20;12.30;;;18.50;99.90;;;;;;4902223;29;20130;-76
2023/06/09 04:41:53;;;;;;;17.80;11.82;;;18.60;99.90;;;;;;4889734;29;20048;-76
2023/06/09 04:44:23;;;;;;;19.98;12.85;;;18.50;99.90;;;;;;4906611;29;20046;-75
2023/06/09 04:46:52;;;;;;;17.90;10.95;;;18.50;99.90;;;;;;4878544;29;20067;-76
2023/06/09 04:49:23;;;;;;;20.33;12.73;;;18.50;99.90;;;;;;4890914;29;20415;-75
2023/06/09 04:51:51;;;;;;;21.00;13.23;;;18.50;99.90;;;;;;4905855;29;20139;-75
2023/06/09 04:54:28;;;;;;;18.58;13.02;;;18.50;99.90;;;;;;4871764;29;20040;-75
2023/06/09 04:57:01;;;;;;;18.17;12.27;;;18.50;99.90;;;;;;4882967;29;20048;-76
2023/06/09 04:59:31;;;;;;;19.23;11.48;;;18.50;99.90;;;;;;4875584;29;20423;-75
2023/06/09 05:01:59;;;;;;;19.42;11.88;;;18.50;99.90;;;;;;4882781;29;20095;-76
2023/06/09 05:04:27;;;;;;;19.23;12.25;;;18.60;99.90;;;;;;4893915;29;20048;-76
2023/06/09 05:06:55;;;;;;;18.23;11.82;;;18.60;99.90;;;;;;4892246;29;20051;-75
2023/06/09 05:09:23;;;;;;;18.23;12.07;;;18.60;99.90;;;;;;4886268;29;20060;-75
2023/06/09 05:11:51;;;;;;;19.08;12.18;;;18.60;99.90;;;;;;4872329;29;20575;-75
2023/06/09 05:14:19;;;;;;;18.80;13.32;;;18.60;99.90;;;;;;4874026;29;20095;-75
2023/06/09 05:16:46;;;;;;;20.63;14.15;;;18.60;99.90;;;;;;4890696;29;20104;-75
2023/06/09 05:19:15;;;;;;;19.80;13.02;;;18.50;99.90;;;;;;4893961;29;20052;-75
2023/06/09 05:21:45;;;;;;;20.75;13.50;;;18.50;99.90;;;;;;4878840;29;20048;-75
2023/06/09 05:24:13;;;;;;;22.02;13.27;;;17.30;99.90;;;;;;4885292;29;20053;-75
2023/06/09 05:26:42;;;;;;;21.48;12.80;;;18.60;99.90;;;;;;4898203;29;20108;-75
2023/06/09 05:29:10;;;;;;;19.33;13.13;;;18.50;99.90;;;;;;4869170;29;20055;-75
2023/06/09 05:31:37;;;;;;;22.00;12.35;;;19.60;99.90;;;;;;4887510;29;20697;-75
2023/06/09 05:34:05;;;;;;;19.23;13.00;;;18.50;99.90;;;;;;4881124;29;20115;-75
2023/06/09 05:36:34;;;;;;;18.55;11.50;;;18.50;99.90;;;;;;4875738;29;20068;-75
2023/06/09 05:39:01;;;;;;;18.73;11.57;;;18.50;99.90;;;;;;4887056;29;20047;-74
2023/06/09 05:41:28;;;;;;;17.90;11.63;;;18.50;99.90;;;;;;4868007;29;20553;-75
2023/06/09 05:43:57;;;;;;;18.38;10.05;;;18.50;99.90;;;;;;4868813;29;20713;-75
2023/06/09 05:46:25;;;;;;;16.85;11.65;;;18.40;99.90;;;;;;4867410;29;20052;-75
2023/06/09 05:48:53;;;;;;;17.90;10.77;;;18.30;99.90;;;;;;4866151;29;20187;-75
2023/06/09 05:51:20;;;;;;;19.88;10.13;;;18.30;99.90;;;;;;4856868;29;20048;-74
2023/06/09 05:53:47;;;;;;;20.40;9.93;;;18.20;99.90;;;;;;4874644;29;20068;-74
2023/06/09 05:56:16;;;;;;;13.90;7.70;;;18.20;99.90;;;;;;4866880;29;20583;-75
2023/06/09 05:58:44;;;;;;;13.70;8.43;;;18.20;99.90;;;;;;4838206;29;20064;-75
2023/06/09 06:01:13;;;;;;;12.57;6.97;;;18.10;99.90;;;;;;4849890;29;20044;-74
2023/06/09 06:03:41;;;;;;;7.55;5.22;;;18.20;99.90;;;;;;4837124;29;20052;-74
2023/06/09 06:06:12;;;;;;;7.80;4.43;;;18.10;99.90;;;;;;4862524;29;20079;-75
2023/06/09 06:08:39;;;;;;;9.18;4.75;;;18.10;99.90;;;;;;4848810;29;20044;-74
2023/06/09 06:11:08;;;;;;;6.97;4.50;;;18.10;99.90;;;;;;4863349;29;20793;-74
2023/06/09 06:13:35;;;;;;;6.65;3.35;;;18.10;99.90;;;;;;4864753;29;20167;-74
2023/06/09 06:16:03;;;;;;;6.50;4.00;;;18.10;99.90;;;;;;4853381;29;20143;-74
2023/06/09 06:18:30;;;;;;;5.78;3.50;;;18.10;99.90;;;;;;4887788;29;20055;-75
2023/06/09 06:20:57;;;;;;;5.28;3.42;;;18.10;99.90;;;;;;4864073;29;20069;-74
2023/06/09 06:23:25;;;;;;;5.22;3.03;;;18.10;99.90;;;;;;4871480;29;20036;-74
2023/06/09 06:25:52;;;;;;;5.97;3.20;;;18.10;99.90;;;;;;4872056;29;20044;-74
2023/06/09 06:28:20;;;;;;;4.30;2.60;;;18.10;99.90;;;;;;4877076;29;20040;-74
2023/06/09 06:30:49;;;;;;;4.20;2.50;;;18.10;99.90;;;;;;4874675;29;20036;-74
2023/06/09 06:33:16;;;;;;;4.55;2.75;;;18.00;99.90;;;;;;4843745;29;20583;-74
2023/06/09 06:35:44;;;;;;;5.03;2.90;;;18.10;99.90;;;;;;4894409;29;20075;-74
2023/06/09 06:38:11;;;;;;;3.83;2.50;;;18.10;99.90;;;;;;4844898;29;20048;-74
2023/06/09 06:40:38;;;;;;;7.47;4.53;;;18.00;99.90;;;;;;4860921;29;20052;-74
2023/06/09 06:43:05;;;;;;;4.97;3.85;;;18.00;99.90;;;;;;4834067;29;20752;-74
2023/06/09 06:45:52;;;;;;;6.20;4.20;;;18.00;99.90;;;;;;4862707;29;20608;-74
2023/06/09 06:48:19;;;;;;;6.82;4.60;;;18.00;99.90;;;;;;4865192;29;20404;-74
2023/06/09 06:50:46;;;;;;;5.72;4.50;;;18.00;99.90;;;;;;4863976;29;20048;-74
2023/06/09 06:53:14;;;;;;;7.78;4.40;;;18.10;99.90;;;;;;4853895;29;20051;-74
2023/06/09 06:55:41;;;;;;;5.80;4.25;;;18.00;99.90;;;;;;4867865;29;20063;-74
2023/06/09 06:58:08;;;;;;;5.95;4.45;;;18.00;99.90;;;;;;4869469;29;20096;-74
2023/06/09 07:00:35;;;;;;;7.43;5.55;;;18.00;99.90;;;;;;4867880;29;20049;-74
2023/06/09 07:03:03;;;;;;;7.88;4.93;;;18.10;99.90;;;;;;4864747;29;20051;-74
2023/06/09 07:05:30;;;;;;;7.28;5.00;;;18.10;99.90;;;;;;4866506;29;20055;-74
2023/06/09 07:07:57;;;;;;;7.45;5.40;;;18.10;99.90;;;;;;4856283;29;20049;-74
2023/06/09 07:10:24;;;;;;;7.20;5.25;;;18.10;99.90;;;;;;4867038;29;20055;-74
2023/06/09 07:12:51;;;;;;;7.07;5.30;;;18.00;99.90;;;;;;4865533;29;20062;-74
2023/06/09 07:15:18;;;;;;;11.63;6.40;;;18.10;99.90;;;;;;4855077;29;20049;-74
2023/06/09 07:17:45;;;;;;;10.30;5.72;;;18.10;99.90;;;;;;4878485;29;20040;-74
2023/06/09 07:20:13;;;;;;;8.13;5.75;;;18.10;99.90;;;;;;4864536;29;20485;-74
2023/06/09 07:22:41;;;;;;;9.40;6.03;;;18.10;99.90;;;;;;4886779;29;20198;-74
2023/06/09 07:25:09;;;;;;;10.90;6.63;;;18.10;99.90;;;;;;4857005;29;22338;-74
2023/06/09 07:27:36;;;;;;;8.82;5.90;;;18.10;99.90;;;;;;4859258;29;20048;-74
2023/06/09 07:30:03;;;;;;;8.65;5.50;;;18.00;99.90;;;;;;4850606;29;20735;-74
2023/06/09 07:32:31;;;;;;;8.13;5.55;;;18.10;99.90;;;;;;4867294;29;20052;-74
2023/06/09 07:34:59;;;;;;;7.88;5.55;;;18.00;99.90;;;;;;4867700;29;20132;-74
2023/06/09 07:37:27;;;;;;;8.30;5.28;;;18.10;99.90;;;;;;4865067;29;20059;-74
2023/06/09 07:39:54;;;;;;;7.85;5.85;;;18.10;99.90;;;;;;4847947;29;20120;-74
2023/06/09 07:42:41;;;;;;;8.77;5.45;;;18.10;99.90;;;;;;4846848;29;20479;-74
2023/06/09 07:45:10;;;;;;;8.93;4.97;;;18.20;99.90;;;;;;4878367;29;20133;-74
2023/06/09 07:47:37;;;;;;;8.55;5.85;;;18.20;99.90;;;;;;4867894;29;20700;-74
2023/06/09 07:50:06;;;;;;;7.30;5.07;;;18.20;99.90;;;;;;4857725;29;20199;-74
2023/06/09 07:52:33;;;;;;;11.27;6.40;;;18.20;99.90;;;;;;4867387;29;20170;-74
2023/06/09 07:55:01;;;;;;;7.93;4.78;;;18.20;99.90;;;;;;4851969;29;20760;-74
2023/06/09 07:57:28;;;;;;;6.25;5.10;;;18.20;99.90;;;;;;4864626;29;20068;-74
2023/06/09 07:59:56;;;;;;;8.77;4.75;;;18.10;99.90;;;;;;4856856;29;20079;-74
2023/06/09 08:02:23;;;;;;;8.77;5.00;;;18.20;99.90;;;;;;4863560;29;20792;-74
2023/06/09 08:04:51;;;;;;;8.68;5.85;;;18.30;99.90;;;;;;4859456;29;20184;-74
2023/06/09 08:07:18;;;;;;;9.93;5.47;;;18.30;99.90;;;;;;4861619;29;20164;-74
2023/06/09 08:09:45;;;;;;;8.13;5.45;;;18.30;99.90;;;;;;4858827;29;20059;-74
2023/06/09 08:12:13;;;;;;;9.45;5.72;;;18.30;99.90;;;;;;4853302;29;20056;-74
2023/06/09 08:14:40;;;;;;;9.20;5.07;;;18.40;99.90;;;;;;4857606;29;20063;-74
2023/06/09 08:17:07;;;;;;;10.65;5.95;;;18.40;99.90;;;;;;4867841;29;20382;-74
2023/06/09 08:19:35;;;;;;;6.80;5.10;;;18.40;99.90;;;;;;4858653;29;20194;-74
2023/06/09 08:22:02;;;;;;;8.23;5.47;;;18.40;99.90;;;;;;4848921;29;20079;-74
2023/06/09 08:24:29;;;;;;;6.97;5.10;;;18.40;99.90;;;;;;4870564;29;20512;-74
2023/06/09 08:26:58;;;;;;;10.45;5.25;;;18.50;99.90;;;;;;4857264;29;20063;-74
2023/06/09 08:29:25;;;;;;;7.55;5.32;;;18.50;99.90;;;;;;4864973;29;20040;-74
2023/06/09 08:31:52;;;;;;;6.78;4.85;;;18.60;99.90;;;;;;4866221;29;20327;-74
2023/06/09 08:34:19;;;;;;;6.97;4.85;;;18.50;99.90;;;;;;4851565;29;20473;-74
2023/06/09 08:36:46;;;;;;;6.45;4.63;;;18.50;99.90;;;;;;4865728;29;20060;-74
2023/06/09 08:39:14;;;;;;;7.15;4.85;;;18.50;99.90;;;;;;4843743;29;20060;-74
2023/06/09 08:41:44;;;;;;;5.80;3.90;;;18.60;99.90;;;;;;4850759;29;20059;-74
2023/06/09 08:44:12;;;;;;;7.32;4.40;;;18.60;99.90;;;;;;4866309;29;20132;-74
2023/06/09 08:46:40;;;;;;;5.25;3.70;;;18.60;99.90;;;;;;4855887;29;20048;-74
2023/06/09 08:49:07;;;;;;;6.45;4.35;;;18.60;99.90;;;;;;4868040;29;20049;-74
2023/06/09 08:51:37;;;;;;;7.03;4.22;;;18.60;99.90;;;;;;4866692;29;20130;-74
2023/06/09 08:54:06;;;;;;;7.07;5.10;;;18.60;99.90;;;;;;4887990;29;20040;-74
2023/06/09 08:56:33;;;;;;;6.43;4.47;;;18.70;99.90;;;;;;4856106;29;20056;-74
2023/06/09 08:59:00;;;;;;;6.70;4.55;;;18.70;99.90;;;;;;4866109;29;20056;-74
2023/06/09 09:01:28;;;;;;;5.18;3.92;;;18.80;99.90;;;;;;4864705;29;20524;-74
2023/06/09 09:03:55;;;;;;;4.78;3.45;;;18.70;99.90;;;;;;4851162;29;21046;-74
2023/06/09 09:06:22;;;;;;;5.43;3.25;;;18.70;99.90;;;;;;4856752;29;20138;-74
2023/06/09 09:08:50;;;;;;;5.20;3.67;;;18.70;99.90;;;;;;4838543;29;20040;-74
2023/06/09 09:11:17;;;;;;;4.38;3.55;;;18.70;99.90;;;;;;4849164;29;20194;-74
2023/06/09 09:13:48;;;;;;;6.43;4.10;;;18.80;99.90;;;;;;4866428;29;20063;-74
2023/06/09 09:16:16;;;;;;;6.07;4.38;;;18.80;99.90;;;;;;4853754;29;20052;-74
2023/06/09 09:18:47;;;;;;;7.63;4.97;;;18.80;99.90;;;;;;4866187;29;20058;-74
2023/06/09 09:21:24;;;;;;;6.38;4.63;;;18.80;99.90;;;;;;4835394;29;20113;-74
2023/06/09 09:24:07;;;;;;;6.75;4.43;;;18.80;99.90;;;;;;4854102;29;20103;-74
2023/06/09 09:26:34;;;;;;;;;;;18.80;99.90;;;;;;4844028;29;20056;-75
2023/06/09 09:29:05;;;;;;;4.85;3.65;;;18.90;99.90;;;;;;4847823;29;19931;-74
2023/06/09 09:31:39;;;;;;;4.97;3.47;;;18.80;99.90;;;;;;4866493;29;22263;-74
2023/06/09 09:34:14;;;;;;;5.25;4.07;;;18.80;99.90;;;;;;4865006;29;20052;-74
2023/06/09 09:36:45;;;;;;;7.22;4.70;;;18.90;99.90;;;;;;4850979;29;20052;-74
2023/06/09 09:39:14;;;;;;;8.53;4.63;;;18.80;99.90;;;;;;4867080;29;20511;-74
2023/06/09 09:42:06;;;;;;;6.55;4.22;;;18.80;99.90;;;;;;4867094;29;20048;-74
2023/06/09 09:44:39;;;;;;;7.82;4.95;;;18.80;99.90;;;;;;4865464;29;20053;-74
2023/06/09 09:47:12;;;;;;;6.40;4.20;;;18.90;99.90;;;;;;4847498;29;20058;-74
2023/06/09 09:49:50;;;;;;;6.75;4.78;;;18.90;99.90;;;;;;4868319;29;20053;-74
2023/06/09 09:52:32;;;;;;;5.68;3.67;;;19.00;99.90;;;;;;4867288;29;20823;-75
2023/06/09 09:55:00;;;;;;;4.75;3.22;;;19.00;99.90;;;;;;4865352;29;20080;-74
2023/06/09 09:57:31;;;;;;;4.72;3.45;;;19.00;99.90;;;;;;4873042;29;20040;-74
2023/06/09 10:00:00;;;;;;;6.47;3.50;;;19.10;99.90;;;;;;4849891;29;20085;-75
2023/06/09 10:02:43;;;;;;;5.82;3.97;;;19.10;99.90;;;;;;4866498;29;20511;-74
2023/06/09 10:05:11;;;;;;;6.25;3.80;;;19.10;99.90;;;;;;4865956;29;20328;-74
2023/06/09 10:07:42;;;;;;;3.88;2.85;;;19.10;99.90;;;;;;4864426;29;20530;-74
2023/06/09 10:10:09;;;;;;;4.53;3.10;;;19.10;99.90;;;;;;4865763;29;20052;-74
2023/06/09 10:12:37;;;;;;;5.05;3.53;;;19.10;99.90;;;;;;4859557;29;20060;-74
2023/06/09 10:15:08;;;;;;;5.07;3.90;;;19.00;99.90;;;;;;4863139;29;20656;-74
2023/06/09 10:17:36;;;;;;;5.68;4.13;;;19.00;99.90;;;;;;4865043;29;20048;-74
2023/06/09 10:20:05;;;;;;;7.28;4.53;;;19.00;99.90;;;;;;4865485;29;20789;-74
2023/06/09 10:22:33;;;;;;;6.15;4.13;;;19.10;99.90;;;;;;4844806;29;20056;-74
2023/06/09 10:25:00;;;;;;;8.05;3.85;;;19.10;99.90;;;;;;4843818;29;22280;-75
2023/06/09 10:27:29;;;;;;;6.18;4.22;;;19.10;99.90;;;;;;4860901;29;20813;-75
2023/06/09 10:29:56;;;;;;;6.05;4.13;;;19.20;99.90;;;;;;4883932;29;20441;-75
2023/06/09 10:32:27;;;;;;;6.20;4.22;;;19.20;99.90;;;;;;4852876;29;20207;-75
2023/06/09 10:34:57;;;;;;;7.88;4.57;;;19.20;99.90;;;;;;4847563;29;20127;-75
2023/06/09 10:37:33;;;;;;;6.50;4.25;;;19.20;99.90;;;;;;4840955;29;20436;-75
2023/06/09 10:40:25;;;;;;;5.63;3.25;;;19.20;99.90;;;;;;4867515;29;20131;-76
2023/06/09 10:43:30;;;;;;;6.18;3.60;;;19.20;99.90;;;;;;4862773;29;20488;-75
2023/06/09 10:45:57;;;;;;;5.65;3.80;;;19.10;99.90;;;;;;4849196;29;20107;-75
2023/06/09 10:48:45;;;;;;;5.85;3.97;;;19.20;99.90;;;;;;4864640;29;20158;-75
2023/06/09 10:51:38;;;;;;;5.47;3.75;;;19.30;99.90;;;;;;4845580;29;20053;-75
2023/06/09 10:54:17;;;;;;;5.95;4.18;;;19.30;99.90;;;;;;4876828;29;20052;-75
2023/06/09 10:56:54;;;;;;;7.43;4.97;;;19.30;99.90;;;;;;4863459;29;20052;-75
2023/06/09 10:59:28;;;;;;;6.75;4.10;;;19.30;99.90;;;;;;4873589;29;20036;-75
2023/06/09 11:02:04;;;;;;;7.00;4.95;;;19.40;99.90;;;;;;4858804;29;20107;-75
2023/06/09 11:04:38;;;;;;;4.30;3.13;;;19.40;99.90;;;;;;4861699;29;22430;-75
2023/06/09 11:07:11;;;;;;;4.32;3.42;;;19.30;99.90;;;;;;4865006;29;20037;-75
2023/06/09 11:09:40;;;;;;;5.55;3.20;;;19.30;99.90;;;;;;4865571;29;20052;-75
2023/06/09 11:12:20;;;;;;;4.30;3.28;;;19.40;99.90;;;;;;4863889;29;20056;-75
2023/06/09 11:14:48;;;;;;;5.78;3.90;;;19.30;99.90;;;;;;4857909;29;20103;-75
2023/06/09 11:17:15;;;;;;;6.80;4.80;;;19.40;99.90;;;;;;4876314;29;22489;-75
2023/06/09 11:19:42;;;;;;;6.45;4.25;;;19.40;99.90;;;;;;4848726;29;20071;-75
2023/06/09 11:22:10;;;;;;;6.07;4.45;;;19.40;99.90;;;;;;4864998;29;20075;-75
2023/06/09 11:24:48;;;;;;;5.35;3.85;;;19.50;99.90;;;;;;4865519;29;20538;-76
2023/06/09 11:27:19;;;;;;;5.25;4.05;;;19.50;99.90;;;;;;4865536;29;20055;-76
2023/06/09 11:30:05;;;;;;;5.83;4.40;;;19.60;99.90;;;;;;4849208;29;20196;-76
2023/06/09 11:32:44;;;;;;;5.53;3.97;;;19.50;99.90;;;;;;4847192;29;20058;-75
2023/06/09 11:35:36;;;;;;;7.00;4.55;;;19.60;99.90;;;;;;4861292;29;20048;-75
2023/06/09 11:38:07;;;;;;;6.85;4.50;;;19.50;99.90;;;;;;4872848;29;20060;-75
2023/06/09 11:40:37;;;;;;;6.75;4.88;;;19.60;99.90;;;;;;4868124;29;20071;-75
2023/06/09 11:43:07;;;;;;;6.63;5.00;;;19.60;99.90;;;;;;4867268;29;20135;-74
2023/06/09 11:45:36;;;;;;;6.65;4.53;;;19.60;99.90;;;;;;4847079;29;20496;-75
2023/06/09 11:48:06;;;;;;;5.82;3.88;;;19.70;99.90;;;;;;4867558;29;20095;-74
2023/06/09 11:50:46;;;;;;;5.70;4.28;;;19.70;99.90;;;;;;4868250;29;20060;-75
2023/06/09 11:53:18;;;;;;;4.95;4.38;;;19.80;99.90;;;;;;4869378;29;20044;-74
2023/06/09 11:55:46;;;;;;;4.37;3.70;;;19.80;99.90;;;;;;4870775;29;20128;-75
2023/06/09 11:58:16;;;;;;;5.53;4.25;;;19.80;99.90;;;;;;4867992;29;21329;-74
2023/06/09 12:00:45;;;;;;;5.05;4.07;;;19.90;99.90;;;;;;4851763;29;20047;-75
2023/06/09 12:03:16;;;;;;;5.82;4.25;;;19.90;99.90;;;;;;4857064;29;20212;-74
2023/06/09 12:05:51;;;;;;;5.30;3.65;;;19.90;99.90;;;;;;4857293;29;20276;-74
2023/06/09 12:08:19;;;;;;;4.47;3.92;;;19.90;99.90;;;;;;4839733;29;20057;-74
2023/06/09 12:10:46;;;;;;;4.28;3.25;;;19.90;99.90;;;;;;4869691;29;20426;-74
2023/06/09 12:13:14;;;;;;;4.43;3.10;;;19.90;99.90;;;;;;4850184;29;20087;-75
2023/06/09 12:15:45;;;;;;;4.25;2.97;;;19.90;99.90;;;;;;4869160;29;20068;-74
2023/06/09 12:18:12;;;;;;;4.97;3.53;;;19.90;99.90;;;;;;4859268;29;20055;-75
2023/06/09 12:20:41;;;;;;;4.82;3.50;;;19.90;99.90;;;;;;4870903;29;20091;-74
2023/06/09 12:23:13;;;;;;;5.25;2.90;;;19.90;99.90;;;;;;4870015;29;20507;-75
2023/06/09 12:25:48;;;;;;;4.32;3.20;;;19.90;99.90;;;;;;4845526;29;22632;-75
2023/06/09 12:28:24;;;;;;;3.63;2.92;;;20.00;99.90;;;;;;4857547;29;20147;-75
2023/06/09 12:30:53;;;;;;;4.57;3.22;;;19.90;99.90;;;;;;4850490;29;20055;-75
2023/06/09 12:33:25;;;;;;;4.35;3.22;;;19.90;99.90;;;;;;4855723;29;20059;-75
2023/06/09 12:36:05;;;;;;;4.05;3.20;;;19.90;99.90;;;;;;4866021;29;20824;-74
2023/06/09 12:38:48;;;;;;;6.03;3.83;;;20.00;99.90;;;;;;4867129;29;20064;-74
2023/06/09 12:41:17;;;;;;;4.70;3.50;;;20.20;99.90;;;;;;4842289;29;20115;-75
2023/06/09 12:43:51;;;;;;;4.28;2.88;;;20.10;99.90;;;;;;4854669;29;20060;-74
2023/06/09 12:46:27;;;;;;;4.00;3.05;;;20.20;99.90;;;;;;4859203;29;20150;-75
2023/06/09 12:49:03;;;;;;;4.32;3.42;;;20.30;99.90;;;;;;4879449;29;20040;-75
2023/06/09 12:51:32;;;;;;;4.07;2.80;;;20.30;99.90;;;;;;4876277;29;20051;-74
2023/06/09 12:54:00;;;;;;;3.80;3.10;;;20.40;99.90;;;;;;4864292;29;22531;-75
2023/06/09 12:56:27;;;;;;;3.40;2.65;;;20.30;99.90;;;;;;4870636;29;20052;-75